Time;durP1;ratioP1;P1;durP2;ratioP2;P2;SDS_P1;SDS_P2;PMS_P1;PMS_P2;Temp;Humidity;BMP_temperature;BMP_pressure;BME280_temperature;BME280_humidity;BME280_pressure;Samples;Min_cycle;Max_cycle;Signal;HPM_P1;HPM_P2
2022/08/18 00:01:46;;;;;;;11.13;5.75;;;;;;;24.98;68.41;100031.66;4995630;28;20046;-72
2022/08/18 00:04:12;;;;;;;9.20;5.63;;;;;;;24.42;67.80;99938.66;5020788;28;20037;-72
2022/08/18 00:06:39;;;;;;;12.40;7.65;;;;;;;24.98;70.12;100043.28;5017751;28;20099;-72
2022/08/18 00:09:07;;;;;;;10.48;6.97;;;;;;;24.91;70.29;100039.28;5002231;28;20664;-72
2022/08/18 00:11:38;;;;;;;13.32;4.85;;;;;;;24.65;69.16;99984.59;5019428;28;20049;-73
2022/08/18 00:14:04;;;;;;;10.13;6.22;;;;;;;24.53;69.18;99958.56;5002455;28;20045;-72
2022/08/18 00:16:29;;;;;;;8.38;5.05;;;;;;;25.00;68.70;100030.56;5003509;28;20513;-72
2022/08/18 00:18:55;;;;;;;8.55;5.13;;;;;;;24.97;68.61;100033.47;5019473;28;20125;-71
2022/08/18 00:21:20;;;;;;;8.75;6.82;;;;;;;24.95;69.08;100034.53;5021206;28;20406;-71
2022/08/18 00:23:46;;;;;;;8.73;6.45;;;;;;;24.39;69.44;99968.34;5019713;28;20049;-72
2022/08/18 00:26:12;;;;;;;7.75;5.35;;;;;;;24.46;69.43;99978.69;5002793;28;20071;-73
2022/08/18 00:28:37;;;;;;;8.25;5.35;;;;;;;24.66;69.51;100023.91;5019474;28;20037;-73
2022/08/18 00:31:05;;;;;;;17.15;5.38;;;;;;;24.66;70.21;100034.63;5002651;28;20165;-71
2022/08/18 00:33:30;;;;;;;12.73;6.40;;;;;;;24.73;70.65;100035.97;4992727;28;20047;-71
2022/08/18 00:35:56;;;;;;;7.18;5.65;;;;;;;24.75;70.23;100034.03;4963140;28;20140;-71
2022/08/18 00:38:21;;;;;;;14.32;6.03;;;;;;;24.22;69.69;99941.75;4981559;28;20034;-72
2022/08/18 00:40:50;;;;;;;8.80;5.28;;;;;;;24.25;71.99;99975.56;4961856;28;20038;-71
2022/08/18 00:43:22;;;;;;;8.88;6.43;;;;;;;23.94;71.65;99959.59;4982954;28;20069;-73
2022/08/18 00:45:48;;;;;;;8.15;6.10;;;;;;;24.10;71.70;99980.09;4980052;28;20042;-72
2022/08/18 00:48:13;;;;;;;8.15;6.35;;;;;;;24.56;70.22;100049.56;4982462;28;20406;-71
2022/08/18 00:50:45;;;;;;;10.00;6.90;;;;;;;24.58;71.52;100045.88;4980216;28;20403;-72
2022/08/18 00:53:35;;;;;;;10.10;6.47;;;;;;;23.93;70.96;99936.44;4962770;28;20089;-72
2022/08/18 00:56:11;;;;;;;8.98;5.90;;;;;;;24.00;72.30;99947.66;4979474;28;20490;-73
2022/08/18 00:58:45;;;;;;;9.35;6.13;;;;;;;24.54;71.29;100043.47;4979278;28;20061;-72
2022/08/18 01:01:12;;;;;;;7.68;5.68;;;;;;;23.92;71.36;99948.09;4977652;28;20061;-72
2022/08/18 01:03:38;;;;;;;9.73;6.05;;;;;;;24.40;72.38;100044.31;4982894;28;20832;-73
2022/08/18 01:06:31;;;;;;;10.10;6.75;;;;;;;24.04;72.82;99956.34;4981811;28;20565;-71
2022/08/18 01:08:57;;;;;;;12.35;6.43;;;;;;;24.51;71.61;100057.06;4979886;28;20778;-72
2022/08/18 01:11:23;;;;;;;8.20;5.72;;;;;;;23.91;70.25;99975.88;4979370;28;20053;-71
2022/08/18 01:13:50;;;;;;;9.10;6.45;;;;;;;23.97;70.34;99970.13;4981491;28;20394;-71
2022/08/18 01:21:52;;;;;;;12.48;6.25;;;;;;;23.91;69.89;99970.53;4979852;28;20412;-74
2022/08/18 01:25:58;;;;;;;;;;;;;;;24.01;71.24;100011.00;4981420;28;20042;-72
2022/08/18 01:27:13;;;;;;;8.07;5.15;;;;;;;24.08;71.70;100055.22;4981330;28;19933;-72
2022/08/18 01:29:38;;;;;;;10.90;5.40;;;;;;;23.94;71.17;99988.22;4980431;28;21650;-72
2022/08/18 01:32:04;;;;;;;9.57;6.50;;;;;;;23.98;71.62;99985.25;4962923;28;20081;-72
2022/08/18 01:34:30;;;;;;;10.48;5.53;;;;;;;23.86;71.72;99971.75;4983737;28;20073;-72
2022/08/18 01:36:56;;;;;;;8.05;6.70;;;;;;;23.87;72.53;99987.75;4981739;28;20088;-72
2022/08/18 01:39:22;;;;;;;10.45;6.55;;;;;;;24.32;73.33;100063.56;4980895;28;20053;-72
2022/08/18 01:41:47;;;;;;;10.68;6.38;;;;;;;24.27;74.50;100065.66;4992755;28;20050;-73
2022/08/18 01:44:13;;;;;;;9.93;6.40;;;;;;;23.40;74.65;99970.06;4993941;28;20045;-72
2022/08/18 01:46:40;;;;;;;7.95;6.53;;;;;;;23.35;74.02;99981.03;4990240;28;20137;-71
2022/08/18 01:49:07;;;;;;;12.48;5.80;;;;;;;23.74;74.64;100040.34;4991906;28;20132;-72
2022/08/18 01:51:33;;;;;;;15.77;7.15;;;;;;;23.64;73.60;100013.22;4973851;28;20057;-72
2022/08/18 01:54:00;;;;;;;9.60;6.82;;;;;;;23.86;73.98;100058.38;4994350;28;20076;-71
2022/08/18 01:56:26;;;;;;;7.82;6.88;;;;;;;23.71;73.99;100045.88;4998055;28;20125;-73
2022/08/18 01:58:54;;;;;;;13.13;7.38;;;;;;;23.48;73.54;100009.75;4999752;28;20037;-72
2022/08/18 02:01:21;;;;;;;14.88;7.10;;;;;;;23.32;74.49;99993.72;4979993;28;21167;-73
2022/08/18 02:03:52;;;;;;;12.13;7.20;;;;;;;23.58;75.90;100072.53;4982784;28;20038;-71
2022/08/18 02:06:18;;;;;;;11.93;6.53;;;;;;;23.30;76.59;100036.69;4997452;28;20655;-72
2022/08/18 02:08:45;;;;;;;10.80;6.70;;;;;;;23.16;76.94;100021.44;4995559;28;20062;-71
2022/08/18 02:11:11;;;;;;;13.13;7.38;;;;;;;22.84;76.99;99988.47;4979447;28;20540;-74
2022/08/18 02:13:37;;;;;;;14.38;7.38;;;;;;;23.43;76.98;100084.16;4998753;28;20517;-72
2022/08/18 02:16:03;;;;;;;10.20;7.15;;;;;;;22.87;76.56;99990.97;4996681;28;20050;-73
2022/08/18 02:18:32;;;;;;;9.82;7.70;;;;;;;23.01;76.25;100019.63;4981196;28;20064;-72
2022/08/18 02:21:10;;;;;;;10.55;6.35;;;;;;;23.50;76.05;100088.19;4994974;28;20042;-72
2022/08/18 02:23:35;;;;;;;11.68;7.63;;;;;;;23.23;77.45;100079.97;5011455;28;20514;-72
2022/08/18 02:26:07;;;;;;;11.30;7.45;;;;;;;23.47;76.98;100080.34;4980232;28;20037;-72
2022/08/18 02:28:32;;;;;;;11.23;7.55;;;;;;;23.39;77.59;100080.81;4998755;28;20049;-71
2022/08/18 02:31:04;;;;;;;13.18;7.35;;;;;;;23.62;77.52;100084.78;4990093;28;20141;-72
2022/08/18 02:33:29;;;;;;;10.38;6.82;;;;;;;22.88;78.70;99986.50;4991268;28;20167;-72
2022/08/18 02:35:55;;;;;;;11.45;6.43;;;;;;;23.27;79.30;100060.09;4986454;28;20497;-72
2022/08/18 02:38:20;;;;;;;15.90;7.55;;;;;;;23.25;80.25;100078.94;4995582;28;20115;-72
2022/08/18 02:40:46;;;;;;;8.27;7.18;;;;;;;22.88;80.69;100027.50;4989574;28;20043;-73
2022/08/18 02:43:12;;;;;;;10.38;6.90;;;;;;;22.96;80.27;100030.56;4976612;28;20524;-72
2022/08/18 02:45:38;;;;;;;9.52;6.82;;;;;;;22.96;79.79;100008.31;4992868;28;20046;-72
2022/08/18 02:48:05;;;;;;;9.05;6.90;;;;;;;23.09;80.78;100073.59;4991880;28;20048;-71
2022/08/18 02:50:31;;;;;;;11.48;7.88;;;;;;;22.62;81.37;100006.72;4986840;28;20038;-72
2022/08/18 02:52:57;;;;;;;16.90;8.82;;;;;;;22.80;81.67;100027.03;4982797;28;20516;-71
2022/08/18 02:55:25;;;;;;;16.58;7.95;;;;;;;22.49;81.54;99985.13;4999451;28;20046;-71
2022/08/18 02:57:51;;;;;;;10.57;6.75;;;;;;;23.00;81.83;100097.34;4998408;28;20112;-71
2022/08/18 03:00:19;;;;;;;10.73;7.60;;;;;;;23.04;82.10;100091.75;4978883;28;20046;-73
2022/08/18 03:02:50;;;;;;;13.55;7.97;;;;;;;22.42;82.07;100011.34;4990200;28;20069;-74
2022/08/18 03:05:17;;;;;;;10.18;6.55;;;;;;;23.01;82.13;100093.72;4991138;28;20030;-72
2022/08/18 03:07:45;;;;;;;11.45;7.47;;;;;;;23.03;82.38;100100.69;4998494;28;20132;-71
2022/08/18 03:10:12;;;;;;;11.00;7.38;;;;;;;22.44;82.08;99988.06;4992171;28;20157;-73
2022/08/18 03:12:44;;;;;;;8.73;7.43;;;;;;;22.77;81.73;100048.63;4989460;28;20049;-72
2022/08/18 03:15:11;;;;;;;15.95;7.47;;;;;;;22.97;82.28;100090.34;4980161;28;20064;-74
2022/08/18 03:17:38;;;;;;;13.38;8.60;;;;;;;22.71;82.41;100089.97;4994276;28;20059;-72
2022/08/18 03:20:04;;;;;;;17.27;7.22;;;;;;;22.16;82.08;100006.56;4995900;28;20049;-72
2022/08/18 03:22:30;;;;;;;13.50;8.02;;;;;;;22.77;81.13;100073.56;5017379;28;20080;-73
2022/08/18 03:24:57;;;;;;;10.75;6.85;;;;;;;22.43;81.68;100025.56;4983121;28;20513;-72
2022/08/18 03:27:23;;;;;;;9.88;7.80;;;;;;;23.02;82.04;100116.88;4985843;28;20049;-73
2022/08/18 03:29:49;;;;;;;12.13;6.97;;;;;;;22.97;82.10;100112.59;4982764;28;20057;-73
2022/08/18 03:32:15;;;;;;;16.00;7.43;;;;;;;22.64;81.55;100063.63;4984552;28;20053;-73
2022/08/18 03:34:41;;;;;;;15.93;7.45;;;;;;;22.61;81.62;100059.31;4966628;28;20104;-73
2022/08/18 03:37:08;;;;;;;10.88;7.18;;;;;;;22.49;79.54;100025.25;5013709;28;20045;-72
2022/08/18 03:39:33;;;;;;;11.80;7.70;;;;;;;23.01;80.38;100118.66;5014753;28;20061;-72
2022/08/18 03:41:59;;;;;;;10.25;7.80;;;;;;;22.52;81.86;100033.97;4999391;28;20041;-72
2022/08/18 03:44:30;;;;;;;11.23;7.82;;;;;;;23.10;81.14;100136.00;5003469;28;20033;-71
2022/08/18 03:46:56;;;;;;;19.02;10.90;;;;;;;22.47;81.22;100030.66;4985362;28;20057;-72
2022/08/18 03:49:22;;;;;;;18.88;8.70;;;;;;;22.41;80.97;100031.03;5002365;28;20046;-72
2022/08/18 03:51:50;;;;;;;18.00;8.38;;;;;;;22.47;81.29;100035.16;4984930;28;20057;-74
2022/08/18 03:54:16;;;;;;;18.63;9.00;;;;;;;22.63;81.02;100046.72;5000836;28;20077;-72
2022/08/18 03:56:44;;;;;;;17.42;8.77;;;;;;;22.23;82.07;100008.84;5001544;28;20076;-72
2022/08/18 03:59:14;;;;;;;16.40;9.95;;;;;;;23.05;81.14;100135.41;4980976;28;20054;-72
2022/08/18 04:01:41;;;;;;;16.02;7.57;;;;;;;22.53;81.00;100034.84;4999737;28;20058;-73
2022/08/18 04:04:09;;;;;;;10.80;8.40;;;;;;;22.62;81.90;100071.75;4999422;28;20058;-72
2022/08/18 04:06:57;;;;;;;10.88;6.97;;;;;;;22.61;80.24;100043.28;5002467;28;20050;-72
2022/08/18 04:09:26;;;;;;;9.52;7.72;;;;;;;23.21;78.26;100130.91;4998846;28;20160;-72
2022/08/18 04:11:52;;;;;;;12.27;8.15;;;;;;;22.85;79.38;100066.91;4982536;28;20041;-73
2022/08/18 04:14:31;;;;;;;18.15;7.68;;;;;;;22.84;79.81;100067.88;4984987;28;20108;-79
2022/08/18 04:17:05;;;;;;;11.25;8.20;;;;;;;22.85;79.91;100050.88;4999383;28;20046;-73
2022/08/18 04:19:33;;;;;;;10.15;6.53;;;;;;;23.53;79.69;100147.81;4999771;28;20164;-72
2022/08/18 04:22:00;;;;;;;13.38;7.65;;;;;;;23.49;79.57;100146.25;5001333;28;20532;-72
2022/08/18 04:24:27;;;;;;;8.48;7.05;;;;;;;23.01;79.99;100067.81;4981442;28;20038;-73
2022/08/18 04:26:55;;;;;;;11.35;7.32;;;;;;;23.29;78.79;100107.22;4983010;28;20041;-72
2022/08/18 04:29:21;;;;;;;17.90;7.47;;;;;;;23.51;80.29;100144.34;4974519;28;20093;-73
2022/08/18 04:31:49;;;;;;;11.45;7.45;;;;;;;22.92;76.79;100093.25;4978739;28;20065;-73
2022/08/18 04:34:15;;;;;;;11.65;7.15;;;;;;;23.64;75.47;100167.75;4973711;28;20108;-71
2022/08/18 04:36:41;;;;;;;10.43;6.90;;;;;;;22.88;76.89;100066.75;4996124;28;20458;-72
2022/08/18 04:39:09;;;;;;;13.68;8.20;;;;;;;23.28;75.78;100099.31;4976892;28;20042;-71
2022/08/18 04:41:37;;;;;;;13.63;8.18;;;;;;;23.14;76.55;100070.66;4977756;28;20029;-72
2022/08/18 04:44:06;;;;;;;11.05;8.52;;;;;;;23.23;76.29;100110.28;4978749;28;20053;-73
2022/08/18 04:46:40;;;;;;;12.40;8.52;;;;;;;23.22;74.56;100081.75;4978173;28;20054;-72
2022/08/18 04:49:08;;;;;;;14.23;8.48;;;;;;;23.20;74.61;100072.97;4974850;28;20041;-71
2022/08/18 04:51:34;;;;;;;13.55;7.50;;;;;;;23.46;73.29;100071.47;4979191;28;20053;-72
2022/08/18 04:53:59;;;;;;;13.05;7.47;;;;;;;23.52;73.22;100097.00;4980603;28;20037;-72
2022/08/18 04:56:31;;;;;;;12.50;7.28;;;;;;;23.37;74.41;100066.66;4970947;28;20026;-72
2022/08/18 04:59:05;;;;;;;11.95;6.68;;;;;;;23.56;74.90;100096.75;4993367;28;20058;-74
2022/08/18 05:01:35;;;;;;;17.35;7.78;;;;;;;23.58;73.86;100078.75;4980825;28;20780;-71
2022/08/18 05:04:01;;;;;;;10.18;8.88;;;;;;;24.20;73.13;100183.16;4984412;28;20050;-72
2022/08/18 05:06:28;;;;;;;12.88;7.80;;;;;;;24.25;71.92;100172.16;4983225;28;20041;-73
2022/08/18 05:08:59;;;;;;;11.68;7.55;;;;;;;23.65;71.66;100065.88;4980455;28;20065;-71
2022/08/18 05:11:32;;;;;;;14.35;6.97;;;;;;;24.12;70.76;100113.06;4993666;28;20048;-72
2022/08/18 05:13:58;;;;;;;10.30;7.35;;;;;;;24.13;69.72;100104.06;4965465;28;20050;-72
2022/08/18 05:16:26;;;;;;;11.60;6.28;;;;;;;23.99;69.81;100053.13;4967650;28;20562;-73
2022/08/18 05:18:52;;;;;;;10.35;6.82;;;;;;;24.16;69.53;100082.44;4979141;28;20050;-72
2022/08/18 05:21:20;;;;;;;14.18;7.25;;;;;;;24.62;68.64;100168.09;4962835;28;20025;-71
2022/08/18 05:23:47;;;;;;;12.25;6.43;;;;;;;24.51;68.80;100151.81;4981322;28;20049;-72
2022/08/18 05:26:15;;;;;;;17.63;8.13;;;;;;;24.08;68.64;100074.00;4978224;28;20038;-71
2022/08/18 05:28:41;;;;;;;15.15;7.03;;;;;;;24.03;68.25;100078.78;4965293;28;20050;-71
2022/08/18 05:31:10;;;;;;;10.82;7.22;;;;;;;24.57;67.71;100070.09;4981013;28;20181;-72
2022/08/18 05:33:38;;;;;;;16.00;7.95;;;;;;;24.66;66.17;100066.84;4970269;28;20125;-73
2022/08/18 05:36:10;;;;;;;11.77;8.82;;;;;;;24.89;65.78;100065.34;4981588;28;20047;-73
2022/08/18 05:38:41;;;;;;;10.60;7.00;;;;;;;26.00;64.72;100173.56;4979985;28;20135;-71
2022/08/18 05:41:13;;;;;;;12.10;7.28;;;;;;;25.68;63.09;100088.75;4997132;28;20049;-72
2022/08/18 05:43:45;;;;;;;13.27;6.97;;;;;;;26.58;61.35;100155.25;4978007;28;20089;-72
2022/08/18 05:46:11;;;;;;;11.75;8.02;;;;;;;26.73;62.51;100179.22;4976622;28;20482;-74
2022/08/18 05:48:37;;;;;;;10.48;7.72;;;;;;;26.63;61.68;100097.41;4995238;28;20065;-73
2022/08/18 05:51:15;;;;;;;13.88;7.25;;;;;;;27.47;60.38;100194.59;5001212;28;20789;-73
2022/08/18 05:56:46;;;;;;;14.70;8.38;;;;;;;27.28;62.08;100185.19;5006063;28;20040;-73
2022/08/18 05:59:35;;;;;;;8.68;6.70;;;;;;;27.74;60.20;100188.97;4958038;28;20104;-73
2022/08/18 06:02:00;;;;;;;31.10;9.38;;;;;;;27.70;58.52;100198.28;4993641;28;20662;-74
2022/08/18 06:04:33;;;;;;;18.67;8.43;;;;;;;27.16;60.09;100194.13;4990570;28;20026;-73
2022/08/18 06:07:03;;;;;;;13.23;7.70;;;;;;;27.30;61.07;100201.22;4982848;28;20843;-74
2022/08/18 06:09:46;;;;;;;12.55;7.50;;;;;;;27.66;58.88;100178.75;4990244;28;20470;-74
2022/08/18 06:12:27;;;;;;;25.38;8.20;;;;;;;27.43;58.18;100126.59;4994141;28;20049;-74
2022/08/18 06:15:05;;;;;;;11.00;7.50;;;;;;;27.62;58.26;100144.06;4983813;28;20050;-74
2022/08/18 06:17:45;;;;;;;12.32;8.98;;;;;;;27.89;58.50;100187.00;4998587;28;20077;-75
2022/08/18 06:20:19;;;;;;;16.80;8.25;;;;;;;27.79;57.15;100119.38;4999169;28;20041;-75
2022/08/18 06:23:13;;;;;;;15.30;7.65;;;;;;;27.27;58.54;100104.44;4979842;28;20036;-76
2022/08/18 06:26:12;;;;;;;14.20;7.05;;;;;;;27.73;57.01;100133.34;4987432;28;20168;-76
2022/08/18 06:29:46;;;;;;;11.10;7.65;;;;;;;28.24;57.12;100194.19;4998650;28;20042;-75
2022/08/18 06:32:30;;;;;;;10.82;7.70;;;;;;;27.78;56.72;100114.97;4913869;29;20095;-73
2022/08/18 06:35:21;;;;;;;12.23;7.53;;;;;;;27.40;57.38;100140.28;4922287;29;20095;-72
2022/08/18 06:41:00;;;;;;;12.27;8.27;;;;;;;27.89;57.38;100162.72;4978432;28;20110;-73
2022/08/18 06:43:27;;;;;;;11.80;7.28;;;;;;;27.78;58.38;100136.53;4978574;28;20134;-73
2022/08/18 06:45:53;;;;;;;7.60;6.45;;;;;;;28.31;57.35;100182.81;4956856;28;20043;-74
2022/08/18 06:48:35;;;;;;;14.13;7.63;;;;;;;28.30;56.80;100191.03;4951864;28;20109;-74
2022/08/18 06:51:02;;;;;;;;;;;;;;;28.31;56.88;100200.88;4956126;28;20046;-73
2022/08/18 06:53:55;;;;;;;11.00;8.60;;;;;;;27.48;56.98;100170.22;4964385;28;20003;-73
2022/08/18 06:56:33;;;;;;;8.85;7.22;;;;;;;27.93;57.20;100207.34;4958640;28;20050;-74
2022/08/18 06:59:30;;;;;;;10.95;7.63;;;;;;;27.99;57.06;100182.59;4982205;28;20050;-74
2022/08/18 07:02:11;;;;;;;9.02;7.38;;;;;;;27.91;57.76;100204.78;4947708;28;20046;-74
2022/08/18 07:04:41;;;;;;;16.23;8.25;;;;;;;27.86;58.47;100188.09;4981996;28;20609;-74
2022/08/18 07:07:15;;;;;;;10.90;7.40;;;;;;;27.43;57.03;100113.09;4977632;28;20133;-75
2022/08/18 07:09:42;;;;;;;9.02;7.28;;;;;;;28.06;57.39;100199.19;4954955;28;20046;-74
2022/08/18 07:12:09;;;;;;;14.25;8.15;;;;;;;27.90;57.32;100186.88;4976604;28;20049;-73
2022/08/18 07:14:49;;;;;;;13.82;7.90;;;;;;;27.92;57.66;100184.06;4958991;28;20369;-72
2022/08/18 07:17:23;;;;;;;17.80;7.32;;;;;;;27.40;58.17;100107.09;4977615;28;20100;-73
2022/08/18 07:20:19;;;;;;;15.40;7.88;;;;;;;27.47;57.67;100108.34;4963078;28;20135;-73
2022/08/18 07:23:32;;;;;;;10.35;7.40;;;;;;;27.00;57.51;100099.25;4982873;28;20114;-75
2022/08/18 07:26:11;;;;;;;12.02;7.85;;;;;;;27.57;57.26;100192.94;4982846;28;20188;-74
2022/08/18 07:28:49;;;;;;;13.60;8.55;;;;;;;27.37;59.15;100178.25;4964994;28;20137;-73
2022/08/18 07:31:26;;;;;;;9.48;7.78;;;;;;;27.38;58.30;100193.44;4976094;28;20065;-75
2022/08/18 07:34:11;;;;;;;15.77;7.75;;;;;;;27.14;59.05;100136.81;4983277;28;20062;-74
2022/08/18 07:36:48;;;;;;;12.93;8.07;;;;;;;27.55;58.28;100189.50;4978494;28;20054;-75
2022/08/18 07:39:26;;;;;;;15.60;8.35;;;;;;;27.07;59.82;100103.22;4978620;28;20030;-74
2022/08/18 07:42:30;;;;;;;10.45;7.05;;;;;;;27.00;58.04;100142.34;4983082;28;20038;-74
2022/08/18 07:45:11;;;;;;;10.30;8.00;;;;;;;26.95;58.30;100110.38;4912140;29;20505;-75
2022/08/18 07:47:52;;;;;;;15.98;7.90;;;;;;;27.05;58.81;100140.19;4977273;28;20055;-74
2022/08/18 07:50:19;;;;;;;20.42;8.05;;;;;;;27.48;57.55;100193.63;4962665;28;20125;-74
2022/08/18 07:52:52;;;;;;;24.50;9.25;;;;;;;27.31;56.82;100149.06;4983971;28;20053;-73
2022/08/18 07:55:36;;;;;;;14.88;8.18;;;;;;;27.60;57.38;100189.16;4938118;28;20046;-75
2022/08/18 07:58:30;;;;;;;16.13;7.85;;;;;;;27.57;56.33;100171.38;4981629;28;20046;-74
2022/08/18 08:01:20;;;;;;;10.80;7.47;;;;;;;27.38;55.58;100161.09;4980255;28;20053;-74
2022/08/18 08:04:04;;;;;;;10.05;7.95;;;;;;;27.48;56.62;100194.47;4982398;28;20060;-74
2022/08/18 08:06:43;;;;;;;12.05;8.13;;;;;;;27.26;56.39;100170.97;4981007;28;20129;-75
2022/08/18 08:09:42;;;;;;;10.18;7.40;;;;;;;27.53;55.71;100164.47;4964186;28;20042;-74
2022/08/18 08:12:29;;;;;;;17.45;7.57;;;;;;;27.50;54.93;100135.06;4981456;28;20061;-74
2022/08/18 08:15:32;;;;;;;11.15;8.18;;;;;;;27.56;55.52;100153.50;4975570;28;20054;-74
2022/08/18 08:18:20;;;;;;;12.90;8.27;;;;;;;27.97;55.66;100189.94;4964870;28;20113;-74
2022/08/18 08:21:16;;;;;;;13.07;9.02;;;;;;;27.53;54.75;100100.66;4953979;28;20062;-74
2022/08/18 08:24:08;;;;;;;10.63;6.78;;;;;;;28.26;54.47;100192.25;4977970;28;20050;-76
2022/08/18 08:27:28;;;;;;;17.97;7.90;;;;;;;28.45;54.35;100205.16;4980857;28;20042;-74
2022/08/18 08:30:12;;;;;;;10.60;7.60;;;;;;;28.34;54.77;100206.88;4924476;28;20395;-74
2022/08/18 08:33:01;;;;;;;11.88;8.05;;;;;;;27.97;53.68;100109.03;4960180;28;20395;-74
2022/08/18 08:35:44;;;;;;;10.65;8.43;;;;;;;28.25;52.58;100099.63;4997224;28;20042;-74
2022/08/18 08:38:36;;;;;;;10.05;8.02;;;;;;;28.77;53.68;100191.84;4998889;28;20529;-74
2022/08/18 08:41:11;;;;;;;11.48;9.13;;;;;;;27.62;52.97;100099.09;4997692;28;20060;-74
2022/08/18 08:43:42;;;;;;;13.35;8.07;;;;;;;28.05;53.47;100136.28;4997428;28;20053;-74
2022/08/18 08:46:24;;;;;;;13.50;7.95;;;;;;;28.66;53.86;100170.25;5000361;28;20117;-73
2022/08/18 08:49:07;;;;;;;9.82;8.52;;;;;;;28.50;53.49;100176.03;4999954;28;20072;-73
2022/08/18 08:51:55;;;;;;;11.27;7.80;;;;;;;28.08;52.81;100140.59;4992321;28;20073;-74
2022/08/18 08:54:29;;;;;;;10.50;8.90;;;;;;;27.99;54.17;100094.44;4954525;28;20065;-77
2022/08/18 08:57:00;;;;;;;10.98;7.90;;;;;;;27.87;53.60;100108.03;4993309;28;20409;-73
2022/08/18 08:59:25;;;;;;;18.25;9.70;;;;;;;28.19;53.50;100109.09;4979369;28;20525;-73
2022/08/18 09:02:01;;;;;;;11.35;8.02;;;;;;;28.25;53.48;100121.22;4981054;28;20037;-73
2022/08/18 09:04:55;;;;;;;12.57;8.05;;;;;;;28.58;52.87;100116.84;4997885;28;20127;-74
2022/08/18 09:07:39;;;;;;;11.98;7.75;;;;;;;28.62;51.84;100119.19;4960629;28;20082;-73
2022/08/18 09:10:25;;;;;;;12.45;8.18;;;;;;;28.85;53.83;100172.34;4983469;28;20037;-73
2022/08/18 09:13:12;;;;;;;14.32;8.65;;;;;;;28.91;53.48;100174.53;5000346;28;20046;-74
2022/08/18 09:16:02;;;;;;;9.70;7.72;;;;;;;28.35;52.94;100110.56;4993174;28;20048;-73
2022/08/18 09:18:43;;;;;;;20.58;9.05;;;;;;;28.63;53.94;100122.75;4990643;28;20082;-73
2022/08/18 09:21:46;;;;;;;12.00;8.25;;;;;;;29.14;51.35;100194.34;4992254;28;20054;-73
2022/08/18 09:24:21;;;;;;;;;;;;;;;29.13;51.98;100195.34;4998857;28;20041;-72
2022/08/18 09:27:02;;;;;;;16.65;9.52;;;;;;;28.33;52.54;100101.72;4982533;28;20014;-73
2022/08/18 09:29:36;;;;;;;11.77;7.95;;;;;;;29.19;54.04;100190.25;4989427;28;20669;-72
2022/08/18 09:32:28;;;;;;;14.30;7.82;;;;;;;28.23;52.06;100125.88;4994873;28;20045;-72
2022/08/18 09:35:11;;;;;;;12.88;7.93;;;;;;;28.14;52.15;100118.50;4997266;28;20091;-73
2022/08/18 09:37:40;;;;;;;12.70;7.75;;;;;;;28.31;52.34;100104.56;4983698;28;20062;-73
2022/08/18 09:43:11;;;;;;;15.43;8.95;;;;;;;28.86;54.07;100190.28;4982021;28;20120;-73
2022/08/18 09:45:46;;;;;;;14.30;9.07;;;;;;;28.38;54.01;100100.38;4963339;28;20114;-73
2022/08/18 09:48:11;;;;;;;12.32;8.90;;;;;;;28.44;54.85;100120.63;4981368;28;20511;-75
2022/08/18 09:51:14;;;;;;;15.20;9.80;;;;;;;28.18;54.38;100093.84;4962549;28;20051;-73
2022/08/18 09:53:46;;;;;;;;;;;;;;;28.38;53.71;100127.38;4963382;28;20059;-73
2022/08/18 09:56:15;;;;;;;18.70;8.20;;;;;;;28.22;53.86;100105.28;4969955;28;19921;-74
2022/08/18 09:58:57;;;;;;;10.05;8.13;;;;;;;28.97;52.23;100152.44;4966271;28;20061;-75
2022/08/18 10:01:30;;;;;;;;;;;;;;;29.76;51.86;100165.78;4980047;28;20331;-73
2022/08/18 10:04:14;;;;;;;11.10;8.10;;;;;;;30.14;48.83;100111.13;4965850;28;20385;-73
2022/08/18 10:06:45;;;;;;;12.35;8.35;;;;;;;30.72;47.67;100189.13;4983393;28;20038;-73
2022/08/18 10:09:29;;;;;;;18.08;7.47;;;;;;;30.81;46.92;100190.16;4984673;28;20054;-74
2022/08/18 10:12:13;;;;;;;13.23;8.18;;;;;;;29.90;47.74;100100.56;4982155;28;20168;-74
2022/08/18 10:15:02;;;;;;;17.98;8.55;;;;;;;28.93;51.58;100095.09;4966383;28;20084;-74
2022/08/18 10:17:53;;;;;;;11.65;7.70;;;;;;;29.57;50.35;100190.78;4982126;28;20050;-73
2022/08/18 10:20:55;;;;;;;11.55;8.07;;;;;;;29.37;50.46;100187.91;4979992;28;20082;-74
2022/08/18 10:23:39;;;;;;;;;;;;;;;29.41;51.88;100185.81;4985573;28;20096;-73
2022/08/18 10:26:37;;;;;;;18.23;7.97;;;;;;;28.34;54.38;100082.72;4981817;28;20374;-74
2022/08/18 10:29:32;;;;;;;15.43;8.30;;;;;;;28.48;51.67;100092.44;4964949;28;20042;-73
2022/08/18 10:31:58;;;;;;;9.10;7.35;;;;;;;28.93;50.04;100180.69;4964566;28;20042;-74
2022/08/18 10:34:49;;;;;;;15.88;7.57;;;;;;;28.27;52.27;100075.25;4983219;28;20383;-75
2022/08/18 10:37:31;;;;;;;10.65;8.35;;;;;;;28.89;52.15;100176.50;4980151;28;20030;-73
2022/08/18 10:40:03;;;;;;;14.85;9.32;;;;;;;28.59;51.28;100107.78;4961521;28;20070;-76
2022/08/18 10:43:07;;;;;;;12.65;9.05;;;;;;;28.44;51.43;100090.94;4996568;28;20038;-73
2022/08/18 10:45:52;;;;;;;12.25;8.55;;;;;;;28.62;53.61;100159.69;4963352;28;20054;-74
2022/08/18 10:48:28;;;;;;;11.75;9.20;;;;;;;28.72;52.78;100167.91;4977229;28;20050;-73
2022/08/18 10:51:11;;;;;;;13.38;8.80;;;;;;;28.90;51.95;100159.34;4958726;28;20053;-74
2022/08/18 10:54:03;;;;;;;14.60;7.95;;;;;;;28.95;51.97;100152.56;4976173;28;20057;-73
2022/08/18 10:56:49;;;;;;;19.23;8.25;;;;;;;28.52;52.54;100082.28;4963007;28;20561;-74
2022/08/18 10:59:40;;;;;;;17.13;8.27;;;;;;;28.78;51.66;100063.94;4977264;28;20498;-74
2022/08/18 11:02:51;;;;;;;11.02;8.05;;;;;;;29.41;51.48;100137.16;4977338;28;20042;-73
2022/08/18 11:05:23;;;;;;;11.68;7.03;;;;;;;30.02;49.86;100072.44;4945872;28;20051;-73
2022/08/18 11:07:59;;;;;;;9.38;7.15;;;;;;;30.97;49.62;100130.91;4980621;28;20391;-75
2022/08/18 11:10:49;;;;;;;17.90;7.60;;;;;;;30.66;48.76;100111.97;4987448;28;20595;-75
2022/08/18 11:13:51;;;;;;;12.23;8.43;;;;;;;30.70;47.91;100129.66;4961142;28;20046;-74
2022/08/18 11:16:49;;;;;;;10.37;8.23;;;;;;;30.34;47.88;100076.91;4978480;28;20060;-73
2022/08/18 11:19:17;;;;;;;10.60;7.95;;;;;;;30.44;47.87;100091.34;4951834;28;20074;-74
2022/08/18 11:21:45;;;;;;;10.80;7.15;;;;;;;30.93;47.23;100069.88;4980017;28;20060;-74
2022/08/18 11:24:23;;;;;;;15.80;8.50;;;;;;;31.01;46.83;100110.66;4963177;28;20050;-73
2022/08/18 11:26:54;;;;;;;12.48;7.65;;;;;;;30.70;46.30;100029.44;4994291;28;20068;-76
2022/08/18 11:29:36;;;;;;;10.52;6.38;;;;;;;31.41;46.83;100111.63;4980847;28;20053;-74
2022/08/18 11:32:06;;;;;;;16.33;9.85;;;;;;;30.32;46.85;100024.75;4978849;28;20041;-74
2022/08/18 11:34:59;;;;;;;11.38;8.07;;;;;;;31.19;46.38;100105.44;4968566;28;20065;-73
2022/08/18 11:37:40;;;;;;;10.30;7.53;;;;;;;30.65;45.89;100025.44;4979469;28;20069;-73
2022/08/18 11:40:10;;;;;;;18.33;8.82;;;;;;;30.96;45.82;100039.78;4984420;28;20049;-74
2022/08/18 11:42:40;;;;;;;10.43;7.10;;;;;;;30.53;45.18;100012.97;4998168;28;20062;-73
2022/08/18 11:45:16;;;;;;;9.80;7.50;;;;;;;30.45;46.10;100033.47;4983094;28;20050;-73
2022/08/18 11:48:18;;;;;;;9.82;7.15;;;;;;;30.64;45.51;100018.28;4999750;28;20508;-72
2022/08/18 11:51:00;;;;;;;14.80;7.68;;;;;;;29.99;46.87;100023.13;4999341;28;20085;-73
2022/08/18 11:53:32;;;;;;;11.20;7.03;;;;;;;29.94;46.77;100019.97;4999238;28;20032;-75
2022/08/18 11:56:13;;;;;;;9.98;7.43;;;;;;;30.41;46.86;100088.91;5001760;28;20176;-75
2022/08/18 11:58:49;;;;;;;10.82;7.75;;;;;;;30.20;48.21;100085.34;4983058;28;20867;-74
2022/08/18 12:01:48;;;;;;;13.23;7.88;;;;;;;29.84;47.77;100012.66;4997790;28;20053;-72
2022/08/18 12:04:13;;;;;;;9.77;7.60;;;;;;;29.90;48.29;100068.09;5000744;28;20065;-73
2022/08/18 12:06:52;;;;;;;15.80;8.95;;;;;;;29.67;47.47;99986.25;4983098;28;20553;-73
2022/08/18 12:09:25;;;;;;;13.27;7.72;;;;;;;29.53;47.81;99970.31;4983569;28;20054;-73
2022/08/18 12:12:01;;;;;;;12.15;7.90;;;;;;;29.87;49.17;100058.38;4999400;28;20121;-73
2022/08/18 12:14:33;;;;;;;15.18;8.00;;;;;;;30.00;49.29;100065.47;4971914;28;20100;-73